createdAt,value
2023-03-05T00:01:27.403Z,37.40
2023-03-05T00:04:29.068Z,37.00
2023-03-05T00:07:31.784Z,34.40
2023-03-05T00:10:33.408Z,32.60
2023-03-05T00:13:35.925Z,35.50
2023-03-05T00:16:37.600Z,35.10
2023-03-05T00:19:39.148Z,37.80
2023-03-05T00:22:40.820Z,33.30
2023-03-05T00:25:42.856Z,31.70
2023-03-05T00:28:44.455Z,30.20
2023-03-05T00:34:47.702Z,29.50
2023-03-05T00:37:53.105Z,27.20
2023-03-05T00:40:54.707Z,24.40
2023-03-05T00:43:56.238Z,25.80
2023-03-05T00:46:57.819Z,25.80
2023-03-05T00:49:59.345Z,26.60
2023-03-05T00:53:00.895Z,25.10
2023-03-05T00:56:02.494Z,28.70
2023-03-05T00:59:04.161Z,26.60
2023-03-05T01:02:06.231Z,28.60
2023-03-05T01:11:12.175Z,29.00
2023-03-05T01:14:14.486Z,35.10
2023-03-05T01:17:16.461Z,28.90
2023-03-05T01:20:19.931Z,27.70
2023-03-05T01:23:21.722Z,28.20
2023-03-05T01:26:23.319Z,27.30
2023-03-05T01:29:27.225Z,27.60
2023-03-05T01:32:28.788Z,28.20
2023-03-05T01:35:30.550Z,30.50
2023-03-05T01:38:32.136Z,25.80
2023-03-05T01:41:34.222Z,28.30
2023-03-05T01:44:35.941Z,25.30
2023-03-05T01:47:38.454Z,26.10
2023-03-05T01:50:40.033Z,28.80
2023-03-05T01:53:41.897Z,23.00
2023-03-05T02:02:49.612Z,21.80
2023-03-05T02:05:51.283Z,23.20
2023-03-05T02:08:52.893Z,23.10
2023-03-05T02:11:54.892Z,21.40
2023-03-05T02:14:56.449Z,23.20
2023-03-05T02:17:58.407Z,22.30
2023-03-05T02:21:03.029Z,25.70
2023-03-05T02:24:05.093Z,21.40
2023-03-05T02:27:07.467Z,24.70
2023-03-05T02:30:09.601Z,26.00
2023-03-05T02:33:14.079Z,24.00
2023-03-05T02:36:16.040Z,22.60
2023-03-05T02:39:17.925Z,21.20
2023-03-05T02:42:19.790Z,22.30
2023-03-05T02:45:21.394Z,22.00
2023-03-05T02:48:23.082Z,21.90
2023-03-05T02:51:24.847Z,22.30
2023-03-05T02:54:26.362Z,23.60
2023-03-05T02:57:28.026Z,21.80
2023-03-05T03:03:31.449Z,16.40
2023-03-05T03:06:33.193Z,19.30
2023-03-05T03:12:41.032Z,24.20
2023-03-05T03:15:42.568Z,22.20
2023-03-05T03:18:44.210Z,19.40
2023-03-05T03:21:45.774Z,21.00
2023-03-05T03:24:47.629Z,20.90
2023-03-05T03:27:49.352Z,16.20
2023-03-05T03:30:50.959Z,16.40
2023-03-05T03:33:52.534Z,19.30
2023-03-05T03:36:54.196Z,21.40
2023-03-05T03:39:56.169Z,22.70
2023-03-05T03:42:57.757Z,17.30
2023-03-05T03:45:59.651Z,18.90
2023-03-05T03:52:03.374Z,18.70
2023-03-05T03:55:05.311Z,19.70
2023-03-05T03:58:07.384Z,18.20
2023-03-05T04:01:08.917Z,15.90
2023-03-05T04:04:12.461Z,11.80
2023-03-05T04:07:14.339Z,14.10
2023-03-05T04:10:15.968Z,15.20
2023-03-05T04:13:17.659Z,17.30
2023-03-05T04:16:19.362Z,12.70
2023-03-05T04:22:23.281Z,17.40
2023-03-05T04:25:24.914Z,16.60
2023-03-05T04:28:26.559Z,19.50
2023-03-05T04:31:28.269Z,14.30
2023-03-05T04:34:29.828Z,16.60
2023-03-05T04:37:31.508Z,17.80
2023-03-05T04:40:33.442Z,13.00
2023-03-05T04:43:35.101Z,16.40
2023-03-05T04:46:36.639Z,18.80
2023-03-05T04:49:38.200Z,15.70
2023-03-05T04:52:44.298Z,17.10
2023-03-05T04:55:45.890Z,18.40
2023-03-05T04:58:47.541Z,18.50
2023-03-05T05:01:49.160Z,15.00
2023-03-05T05:04:54.433Z,22.80
2023-03-05T05:07:57.549Z,23.50
2023-03-05T05:11:05.112Z,22.70
2023-03-05T05:14:06.933Z,22.40
2023-03-05T05:17:09.212Z,24.60
2023-03-05T05:20:12.507Z,24.10
2023-03-05T05:23:14.162Z,21.40
2023-03-05T05:26:15.717Z,21.50
2023-03-05T05:29:17.324Z,24.10
2023-03-05T05:32:20.731Z,20.80
2023-03-05T05:35:22.643Z,19.60
2023-03-05T05:38:24.190Z,25.50
2023-03-05T05:41:25.781Z,26.50
2023-03-05T05:44:27.810Z,25.50
2023-03-05T05:47:29.534Z,25.70
2023-03-05T05:50:31.313Z,23.10
2023-03-05T05:56:34.426Z,22.10
2023-03-05T05:59:35.991Z,22.40
2023-03-05T06:02:39.416Z,20.70
2023-03-05T06:05:42.418Z,20.30
2023-03-05T06:08:44.114Z,24.30
2023-03-05T06:11:45.716Z,21.50
2023-03-05T06:14:47.338Z,25.40
2023-03-05T06:17:48.970Z,24.90
2023-03-05T06:21:05.798Z,28.50
2023-03-05T06:24:07.586Z,24.00
2023-03-05T06:30:11.770Z,27.10
2023-03-05T06:33:13.813Z,27.80
2023-03-05T06:36:17.720Z,27.00
2023-03-05T06:39:19.535Z,29.80
2023-03-05T06:45:22.612Z,30.50
2023-03-05T06:48:24.268Z,34.70
2023-03-05T06:51:34.262Z,34.50
2023-03-05T06:54:35.989Z,31.30
2023-03-05T06:57:37.652Z,35.40
2023-03-05T07:00:39.214Z,36.90
2023-03-05T07:03:41.595Z,35.20
2023-03-05T07:06:43.798Z,34.80
2023-03-05T07:09:45.490Z,35.10
2023-03-05T07:12:47.222Z,37.90
2023-03-05T07:15:49.135Z,33.50
2023-03-05T07:18:50.946Z,36.30
2023-03-05T07:24:54.069Z,37.50
2023-03-05T07:27:56.523Z,37.40
2023-03-05T07:31:00.228Z,38.40
2023-03-05T07:34:02.757Z,40.30
2023-03-05T07:37:04.467Z,38.20
2023-03-05T07:40:06.858Z,39.60
2023-03-05T07:43:08.876Z,38.50
2023-03-05T07:46:11.923Z,39.30
2023-03-05T07:49:13.643Z,44.20
2023-03-05T07:52:15.453Z,45.30
2023-03-05T07:55:17.296Z,44.90
2023-03-05T08:01:20.498Z,41.60
2023-03-05T08:04:22.154Z,44.60
2023-03-05T08:10:25.681Z,45.90
2023-03-05T08:13:27.285Z,43.40
2023-03-05T08:16:28.922Z,42.40
2023-03-05T08:19:30.570Z,37.50
2023-03-05T08:22:35.390Z,38.80
2023-03-05T08:25:36.931Z,35.70
2023-03-05T08:28:38.535Z,35.80
2023-03-05T08:31:40.126Z,40.50
2023-03-05T08:34:41.820Z,35.30
2023-03-05T08:37:43.393Z,37.50
2023-03-05T08:40:44.937Z,39.00
2023-03-05T08:43:46.489Z,35.70
2023-03-05T08:46:48.149Z,30.90
2023-03-05T08:52:51.458Z,32.70
2023-03-05T08:55:59.157Z,34.80
2023-03-05T08:59:01.741Z,33.00
2023-03-05T09:05:04.061Z,30.50
2023-03-05T09:08:05.759Z,30.10
2023-03-05T09:14:10.366Z,33.20
2023-03-05T09:17:11.949Z,32.30
2023-03-05T09:20:13.998Z,35.70
2023-03-05T09:23:15.573Z,32.60
2023-03-05T09:26:17.749Z,32.80
2023-03-05T09:29:19.417Z,30.50
2023-03-05T09:32:21.135Z,32.20
2023-03-05T09:38:24.618Z,34.00
2023-03-05T09:41:54.181Z,33.30
2023-03-05T09:45:04.103Z,32.90
2023-03-05T09:48:24.463Z,33.20
2023-03-05T09:51:30.009Z,32.00
2023-03-05T09:54:41.328Z,29.10
2023-03-05T09:57:45.925Z,29.40
2023-03-05T10:00:50.642Z,29.40
2023-03-05T10:03:56.209Z,31.70
2023-03-05T10:06:57.750Z,28.80
2023-03-05T10:10:02.991Z,29.80
2023-03-05T10:13:29.161Z,31.10
2023-03-05T10:16:58.337Z,32.20
2023-03-05T10:20:21.805Z,30.80
2023-03-05T10:23:30.826Z,34.00
2023-03-05T10:26:44.409Z,35.60
2023-03-05T10:30:30.930Z,32.20
2023-03-05T10:33:51.387Z,31.40
2023-03-05T10:37:02.120Z,36.20
2023-03-05T10:40:11.101Z,37.70
2023-03-05T10:43:31.196Z,36.80
2023-03-05T10:46:36.202Z,38.30
2023-03-05T10:49:42.279Z,37.30
2023-03-05T10:52:44.341Z,40.30
2023-03-05T10:55:45.868Z,41.10
2023-03-05T10:58:47.440Z,34.50
2023-03-05T11:05:05.188Z,34.90
2023-03-05T11:08:35.295Z,36.10
2023-03-05T11:11:36.934Z,38.30
2023-03-05T11:14:42.132Z,33.30
2023-03-05T11:17:48.451Z,32.90
2023-03-05T11:20:50.718Z,33.90
2023-03-05T11:24:14.013Z,31.30
2023-03-05T11:27:30.804Z,33.60
2023-03-05T11:30:35.376Z,32.50
2023-03-05T11:33:37.480Z,36.30
2023-03-05T11:36:41.133Z,35.60
2023-03-05T11:39:45.373Z,33.70
2023-03-05T11:42:54.532Z,38.00
2023-03-05T11:46:03.004Z,41.20
2023-03-05T11:49:05.697Z,37.60
2023-03-05T11:52:27.209Z,43.60
2023-03-05T11:55:38.215Z,41.50
2023-03-05T11:58:46.755Z,42.30
2023-03-05T12:01:51.899Z,39.80
2023-03-05T12:04:53.668Z,43.40
2023-03-05T12:08:01.225Z,41.00
2023-03-05T12:11:18.658Z,43.30
2023-03-05T12:14:26.416Z,46.90
2023-03-05T12:17:32.118Z,49.20
2023-03-05T12:21:04.804Z,48.60
2023-03-05T12:24:27.533Z,47.40
2023-03-05T12:27:36.291Z,45.80
2023-03-05T12:30:37.812Z,39.80
2023-03-05T12:33:41.129Z,42.60
2023-03-05T12:36:42.666Z,40.50
2023-03-05T12:39:44.308Z,40.00
2023-03-05T12:43:28.548Z,36.60
2023-03-05T12:46:30.794Z,35.90
2023-03-05T12:49:39.185Z,38.20
2023-03-05T12:52:42.458Z,42.60
2023-03-05T12:55:44.137Z,39.00
2023-03-05T12:58:49.894Z,42.10
2023-03-05T13:01:58.835Z,41.90
2023-03-05T13:05:04.833Z,44.80
2023-03-05T13:08:22.253Z,39.20
2023-03-05T13:11:23.856Z,41.20
2023-03-05T13:14:31.142Z,35.30
2023-03-05T13:17:37.698Z,34.90
2023-03-05T13:20:41.118Z,36.20
2023-03-05T13:23:48.976Z,38.40
2023-03-05T13:26:50.524Z,33.80
2023-03-05T13:29:52.602Z,33.80
2023-03-05T13:32:59.436Z,40.00
2023-03-05T13:36:01.791Z,36.40
2023-03-05T13:39:03.768Z,36.90
2023-03-05T13:42:15.829Z,32.00
2023-03-05T13:45:29.780Z,35.40
2023-03-05T13:48:31.462Z,37.70
2023-03-05T13:54:45.645Z,37.80
2023-03-05T13:57:50.273Z,33.40
2023-03-05T14:01:03.240Z,37.00
2023-03-05T14:04:19.265Z,32.80
2023-03-05T14:07:38.989Z,37.30
2023-03-05T14:10:40.795Z,39.50
2023-03-05T14:13:43.387Z,39.60
2023-03-05T14:16:44.958Z,40.70
2023-03-05T14:19:46.582Z,41.30
2023-03-05T14:22:49.520Z,35.40
2023-03-05T14:25:51.285Z,35.10
2023-03-05T14:28:57.340Z,37.10
2023-03-05T14:32:07.555Z,38.90
2023-03-05T14:35:17.989Z,37.70
2023-03-05T14:38:22.598Z,37.80
2023-03-05T14:41:41.462Z,35.10
2023-03-05T14:44:43.054Z,37.80
2023-03-05T14:47:45.282Z,36.40
2023-03-05T14:50:54.094Z,37.10
2023-03-05T14:53:56.876Z,36.10
2023-03-05T14:56:58.495Z,38.00
2023-03-05T15:00:00.061Z,37.00
2023-03-05T15:03:01.725Z,34.10
2023-03-05T15:06:03.577Z,35.30
2023-03-05T15:09:06.206Z,38.00
2023-03-05T15:12:08.590Z,34.10
2023-03-05T15:15:13.955Z,34.10
2023-03-05T15:18:18.419Z,35.40
2023-03-05T15:21:20.091Z,38.50
2023-03-05T15:27:23.656Z,33.20
2023-03-05T15:30:29.500Z,21.20
2023-03-05T15:33:34.631Z,25.80
2023-03-05T15:36:36.225Z,24.20
2023-03-05T15:39:37.834Z,25.80
2023-03-05T15:42:39.917Z,22.70
2023-03-05T15:45:41.564Z,21.80
2023-03-05T15:48:44.204Z,22.50
2023-03-05T15:51:45.886Z,22.40
2023-03-05T15:54:47.507Z,23.70
2023-03-05T15:57:50.673Z,25.70
2023-03-05T16:00:52.510Z,24.20
2023-03-05T16:03:54.140Z,27.00
2023-03-05T16:06:56.938Z,23.60
2023-03-05T16:09:58.542Z,25.30
2023-03-05T16:13:08.213Z,28.30
2023-03-05T16:16:09.990Z,24.50
2023-03-05T16:19:13.903Z,24.50
2023-03-05T16:22:15.969Z,28.80
2023-03-05T16:25:17.823Z,29.70
2023-03-05T16:28:19.461Z,27.70
2023-03-05T16:31:21.050Z,22.60
2023-03-05T16:34:22.728Z,22.80
2023-03-05T16:37:25.509Z,22.90
2023-03-05T16:40:44.272Z,24.40
2023-03-05T16:43:50.254Z,29.90
2023-03-05T16:46:52.055Z,26.00
2023-03-05T16:49:53.669Z,26.40
2023-03-05T16:52:55.422Z,33.60
2023-03-05T16:55:57.003Z,29.60
2023-03-05T16:58:58.685Z,31.40
2023-03-05T17:02:00.447Z,31.80
2023-03-05T17:08:04.796Z,34.30
2023-03-05T17:14:08.147Z,28.20
2023-03-05T17:17:09.942Z,26.10
2023-03-05T17:23:13.536Z,25.20
2023-03-05T17:26:18.537Z,23.90
2023-03-05T17:29:20.131Z,26.50
2023-03-05T17:32:22.018Z,23.10
2023-03-05T17:35:23.836Z,25.90
2023-03-05T17:41:27.335Z,25.30
2023-03-05T17:47:30.628Z,23.70
2023-03-05T17:50:32.177Z,20.10
2023-03-05T17:53:34.604Z,21.60
2023-03-05T17:56:36.164Z,21.30
2023-03-05T18:02:39.894Z,21.20
2023-03-05T18:05:41.496Z,24.00
2023-03-05T18:08:43.217Z,25.40
2023-03-05T18:11:44.803Z,29.90
2023-03-05T18:14:46.429Z,32.60
2023-03-05T18:17:48.153Z,31.40
2023-03-05T18:23:51.924Z,29.70
2023-03-05T18:29:55.290Z,32.60
2023-03-05T18:32:57.875Z,31.60
2023-03-05T18:35:59.585Z,35.30
2023-03-05T18:42:02.880Z,31.40
2023-03-05T18:45:06.352Z,31.30
2023-03-05T18:48:07.987Z,31.50
2023-03-05T18:51:14.673Z,34.70
2023-03-05T18:54:16.366Z,33.80
2023-03-05T19:00:22.653Z,33.20
2023-03-05T19:03:24.311Z,38.40
2023-03-05T19:06:26.023Z,42.20
2023-03-05T19:09:27.718Z,35.80
2023-03-05T19:18:34.239Z,40.20
2023-03-05T19:21:36.456Z,50.60
2023-03-05T19:24:38.196Z,39.20
2023-03-05T19:27:40.153Z,38.50
2023-03-05T19:30:41.848Z,37.10
2023-03-05T19:36:45.377Z,38.50
2023-03-05T19:39:47.030Z,42.40
2023-03-05T19:42:48.732Z,43.20
2023-03-05T19:45:50.317Z,40.50
2023-03-05T19:48:52.020Z,42.90
2023-03-05T19:51:53.614Z,44.90
2023-03-05T19:54:55.132Z,41.60
2023-03-05T19:57:56.782Z,44.90
2023-03-05T20:01:11.393Z,46.20
2023-03-05T20:04:16.288Z,53.30
2023-03-05T20:07:18.178Z,58.80
2023-03-05T20:10:19.942Z,60.00
2023-03-05T20:16:28.971Z,55.00
2023-03-05T20:19:30.570Z,55.80
2023-03-05T20:22:32.533Z,55.90
2023-03-05T20:25:34.290Z,54.80
2023-03-05T20:28:35.914Z,57.10
2023-03-05T20:31:38.207Z,54.90
2023-03-05T20:34:39.796Z,54.30
2023-03-05T20:37:41.891Z,56.10
2023-03-05T20:40:43.478Z,50.70
2023-03-05T20:43:47.840Z,54.70
2023-03-05T20:46:49.500Z,53.20
2023-03-05T20:52:55.727Z,48.10
2023-03-05T20:55:57.252Z,51.80
2023-03-05T20:58:59.949Z,48.00
2023-03-05T21:02:01.611Z,47.60
2023-03-05T21:05:03.319Z,51.10
2023-03-05T21:08:05.257Z,49.90
2023-03-05T21:11:08.568Z,49.70
2023-03-05T21:14:10.192Z,53.00
2023-03-05T21:17:12.310Z,55.40
2023-03-05T21:20:17.788Z,53.80
2023-03-05T21:23:19.369Z,52.90
2023-03-05T21:26:21.334Z,53.20
2023-03-05T21:29:22.993Z,64.90
2023-03-05T21:35:26.873Z,51.60
2023-03-05T21:38:28.656Z,49.40
2023-03-05T21:44:31.773Z,47.90
2023-03-05T21:47:33.927Z,43.10
2023-03-05T21:50:39.399Z,44.80
2023-03-05T21:53:40.937Z,44.30
2023-03-05T21:56:42.596Z,46.30
2023-03-05T21:59:44.206Z,41.90
2023-03-05T22:02:48.892Z,44.50
2023-03-05T22:05:50.484Z,44.90
2023-03-05T22:08:52.026Z,43.30
2023-03-05T22:11:53.725Z,46.20
2023-03-05T22:14:55.732Z,43.70
2023-03-05T22:17:57.318Z,42.80
2023-03-05T22:20:59.562Z,45.90
2023-03-05T22:24:01.168Z,45.30
2023-03-05T22:27:02.777Z,41.70
2023-03-05T22:30:04.773Z,44.10
2023-03-05T22:33:06.293Z,44.80
2023-03-05T22:36:10.065Z,50.90
2023-03-05T22:39:11.707Z,49.70
2023-03-05T22:42:13.343Z,52.10
2023-03-05T22:45:16.432Z,54.30
2023-03-05T22:48:18.062Z,53.30
2023-03-05T22:51:20.195Z,54.00
2023-03-05T22:54:21.886Z,51.80
2023-03-05T22:57:23.694Z,56.50
2023-03-05T23:03:27.017Z,55.30
2023-03-05T23:09:30.633Z,55.30
2023-03-05T23:12:35.455Z,60.40
2023-03-05T23:15:38.281Z,62.20
2023-03-05T23:18:39.887Z,75.10
2023-03-05T23:21:41.429Z,66.40
2023-03-05T23:24:43.106Z,59.10
2023-03-05T23:27:44.768Z,55.90
2023-03-05T23:30:46.461Z,60.30
2023-03-05T23:33:48.168Z,57.90
2023-03-05T23:36:49.778Z,61.60
2023-03-05T23:39:51.368Z,53.80
2023-03-05T23:42:53.438Z,55.50
2023-03-05T23:45:56.118Z,58.90
2023-03-05T23:48:57.732Z,58.00
2023-03-05T23:51:59.284Z,58.80
2023-03-05T23:55:00.941Z,56.10
2023-03-05T23:58:03.408Z,56.60
